sensor_id;sensor_type;location;lat;lon;timestamp;pressure;altitude;pressure_sealevel;temperature;humidity
27864;BME280;15980;51.092;13.916;2023-01-28T00:03:17;99441.44;;;0.36;100.00
27864;BME280;15980;51.092;13.916;2023-01-28T00:13:18;99439.00;;;0.35;100.00
27864;BME280;15980;51.092;13.916;2023-01-28T00:23:18;99444.66;;;0.33;100.00
27864;BME280;15980;51.092;13.916;2023-01-28T00:33:18;99441.25;;;0.16;99.95
27864;BME280;15980;51.092;13.916;2023-01-28T00:43:19;99439.06;;;0.13;99.92
27864;BME280;15980;51.092;13.916;2023-01-28T00:53:19;99441.19;;;0.11;99.59
27864;BME280;15980;51.092;13.916;2023-01-28T01:03:20;99445.97;;;-0.18;100.00
27864;BME280;15980;51.092;13.916;2023-01-28T01:13:20;99446.28;;;-0.15;100.00
27864;BME280;15980;51.092;13.916;2023-01-28T01:23:20;99449.91;;;-0.04;99.76
27864;BME280;15980;51.092;13.916;2023-01-28T01:33:20;99463.69;;;-0.01;100.00
27864;BME280;15980;51.092;13.916;2023-01-28T01:43:21;99468.13;;;0.06;99.90
27864;BME280;15980;51.092;13.916;2023-01-28T01:53:23;99466.66;;;-0.02;99.45
27864;BME280;15980;51.092;13.916;2023-01-28T02:03:37;99462.53;;;-0.10;99.42
27864;BME280;15980;51.092;13.916;2023-01-28T02:13:45;99461.59;;;0.02;98.13
27864;BME280;15980;51.092;13.916;2023-01-28T02:34:38;99465.78;;;-0.08;97.24
27864;BME280;15980;51.092;13.916;2023-01-28T02:44:39;99465.78;;;-0.08;97.58
27864;BME280;15980;51.092;13.916;2023-01-28T02:54:54;99471.94;;;0.10;97.54
27864;BME280;15980;51.092;13.916;2023-01-28T03:05:27;99477.13;;;-0.06;97.31
27864;BME280;15980;51.092;13.916;2023-01-28T03:15:36;99465.19;;;-0.37;98.19
27864;BME280;15980;51.092;13.916;2023-01-28T03:25:40;99475.13;;;-0.15;96.82
27864;BME280;15980;51.092;13.916;2023-01-28T03:35:43;99483.41;;;-0.22;96.98
27864;BME280;15980;51.092;13.916;2023-01-28T03:45:45;99487.56;;;-0.14;96.99
27864;BME280;15980;51.092;13.916;2023-01-28T03:55:49;99497.22;;;-0.18;96.77
27864;BME280;15980;51.092;13.916;2023-01-28T04:06:00;99507.91;;;-0.45;97.13
27864;BME280;15980;51.092;13.916;2023-01-28T04:16:01;99504.94;;;-0.66;97.91
27864;BME280;15980;51.092;13.916;2023-01-28T04:26:01;99515.47;;;-0.81;96.49
27864;BME280;15980;51.092;13.916;2023-01-28T04:36:01;99523.31;;;-0.96;95.74
27864;BME280;15980;51.092;13.916;2023-01-28T04:46:02;99534.31;;;-1.14;95.24
27864;BME280;15980;51.092;13.916;2023-01-28T04:56:02;99541.31;;;-1.30;95.07
27864;BME280;15980;51.092;13.916;2023-01-28T05:06:03;99549.69;;;-1.43;94.87
27864;BME280;15980;51.092;13.916;2023-01-28T05:16:03;99564.81;;;-1.54;94.79
27864;BME280;15980;51.092;13.916;2023-01-28T05:26:04;99574.72;;;-1.43;94.43
27864;BME280;15980;51.092;13.916;2023-01-28T05:36:04;99567.66;;;-1.61;93.10
27864;BME280;15980;51.092;13.916;2023-01-28T05:46:05;99583.25;;;-1.74;91.84
27864;BME280;15980;51.092;13.916;2023-01-28T05:56:05;99595.34;;;-1.88;90.63
27864;BME280;15980;51.092;13.916;2023-01-28T06:06:06;99605.38;;;-1.84;90.71
27864;BME280;15980;51.092;13.916;2023-01-28T06:16:07;99617.22;;;-2.20;90.13
27864;BME280;15980;51.092;13.916;2023-01-28T06:26:07;99638.16;;;-2.22;90.07
27864;BME280;15980;51.092;13.916;2023-01-28T06:36:07;99651.13;;;-2.42;89.54
27864;BME280;15980;51.092;13.916;2023-01-28T06:46:08;99673.97;;;-2.63;90.15
27864;BME280;15980;51.092;13.916;2023-01-28T06:56:08;99669.63;;;-2.76;88.40
27864;BME280;15980;51.092;13.916;2023-01-28T07:06:09;99685.00;;;-2.41;86.51
27864;BME280;15980;51.092;13.916;2023-01-28T07:16:09;99676.94;;;-2.41;86.68
27864;BME280;15980;51.092;13.916;2023-01-28T07:26:09;99694.59;;;-2.45;85.94
27864;BME280;15980;51.092;13.916;2023-01-28T07:36:10;99699.38;;;-2.24;85.44
27864;BME280;15980;51.092;13.916;2023-01-28T07:46:10;99699.28;;;-2.17;84.40
27864;BME280;15980;51.092;13.916;2023-01-28T07:56:10;99700.47;;;-2.02;82.67
27864;BME280;15980;51.092;13.916;2023-01-28T08:06:11;99702.66;;;-2.34;81.65
27864;BME280;15980;51.092;13.916;2023-01-28T08:16:11;99712.16;;;-2.08;79.50
27864;BME280;15980;51.092;13.916;2023-01-28T08:26:11;99721.63;;;-1.82;78.96
27864;BME280;15980;51.092;13.916;2023-01-28T08:36:11;99714.25;;;-1.86;77.39
27864;BME280;15980;51.092;13.916;2023-01-28T08:46:12;99728.06;;;-1.60;76.07
27864;BME280;15980;51.092;13.916;2023-01-28T08:56:12;99736.09;;;-1.36;74.19
27864;BME280;15980;51.092;13.916;2023-01-28T09:06:12;99734.22;;;-0.96;75.73
27864;BME280;15980;51.092;13.916;2023-01-28T09:16:13;99745.59;;;-0.93;72.99
27864;BME280;15980;51.092;13.916;2023-01-28T09:26:13;99760.84;;;-0.99;72.37
27864;BME280;15980;51.092;13.916;2023-01-28T09:36:14;99769.97;;;-1.00;73.46
27864;BME280;15980;51.092;13.916;2023-01-28T09:46:15;99752.50;;;-0.86;73.92
27864;BME280;15980;51.092;13.916;2023-01-28T09:56:24;99770.34;;;-0.68;74.43
27864;BME280;15980;51.092;13.916;2023-01-28T10:06:40;99779.63;;;-0.76;74.64
27864;BME280;15980;51.092;13.916;2023-01-28T10:26:48;99780.47;;;-0.87;70.38
27864;BME280;15980;51.092;13.916;2023-01-28T10:36:49;99791.63;;;-0.95;72.10
27864;BME280;15980;51.092;13.916;2023-01-28T10:46:50;99800.06;;;-1.03;73.27
27864;BME280;15980;51.092;13.916;2023-01-28T10:57:07;99806.19;;;-1.08;69.94
27864;BME280;15980;51.092;13.916;2023-01-28T11:07:19;99805.16;;;-1.42;72.01
27864;BME280;15980;51.092;13.916;2023-01-28T11:17:22;99796.06;;;-0.89;70.12
27864;BME280;15980;51.092;13.916;2023-01-28T11:27:29;99802.78;;;-1.03;70.03
27864;BME280;15980;51.092;13.916;2023-01-28T11:37:30;99795.03;;;-1.00;70.60
27864;BME280;15980;51.092;13.916;2023-01-28T11:47:36;99776.72;;;-1.26;70.08
27864;BME280;15980;51.092;13.916;2023-01-28T12:39:08;99759.00;;;-0.53;69.52
27864;BME280;15980;51.092;13.916;2023-01-28T12:49:16;99745.69;;;-0.60;69.94
27864;BME280;15980;51.092;13.916;2023-01-28T12:59:43;99752.78;;;-0.42;70.03
27864;BME280;15980;51.092;13.916;2023-01-28T13:09:48;99752.22;;;-0.56;68.55
27864;BME280;15980;51.092;13.916;2023-01-28T13:19:50;99752.41;;;-0.46;70.83
27864;BME280;15980;51.092;13.916;2023-01-28T13:30:24;99757.53;;;-0.33;70.05
27864;BME280;15980;51.092;13.916;2023-01-28T13:40:28;99758.63;;;-1.02;72.14
27864;BME280;15980;51.092;13.916;2023-01-28T13:50:38;99753.66;;;-0.93;72.60
27864;BME280;15980;51.092;13.916;2023-01-28T14:21:18;99789.41;;;-0.86;70.68
27864;BME280;15980;51.092;13.916;2023-01-28T14:31:33;99798.53;;;-0.99;71.06
27864;BME280;15980;51.092;13.916;2023-01-28T14:41:34;99780.56;;;-1.34;70.24
27864;BME280;15980;51.092;13.916;2023-01-28T14:52:15;99784.19;;;-1.40;71.62
27864;BME280;15980;51.092;13.916;2023-01-28T15:02:22;99784.31;;;-1.23;72.56
27864;BME280;15980;51.092;13.916;2023-01-28T15:12:22;99776.38;;;-1.30;72.96
27864;BME280;15980;51.092;13.916;2023-01-28T15:22:26;99779.50;;;-1.33;72.96
27864;BME280;15980;51.092;13.916;2023-01-28T15:32:29;99766.19;;;-1.28;71.42
27864;BME280;15980;51.092;13.916;2023-01-28T15:42:29;99762.31;;;-1.20;72.80
27864;BME280;15980;51.092;13.916;2023-01-28T15:52:39;99752.47;;;-1.26;74.10
27864;BME280;15980;51.092;13.916;2023-01-28T16:02:43;99764.44;;;-1.45;69.91
27864;BME280;15980;51.092;13.916;2023-01-28T16:12:48;99757.28;;;-1.28;68.22
27864;BME280;15980;51.092;13.916;2023-01-28T16:22:49;99753.31;;;-1.25;69.08
27864;BME280;15980;51.092;13.916;2023-01-28T16:32:49;99758.41;;;-1.12;72.31
27864;BME280;15980;51.092;13.916;2023-01-28T16:42:53;99777.78;;;-1.27;70.83
27864;BME280;15980;51.092;13.916;2023-01-28T16:52:54;99777.06;;;-1.34;69.58
27864;BME280;15980;51.092;13.916;2023-01-28T17:02:55;99763.81;;;-1.36;70.12
27864;BME280;15980;51.092;13.916;2023-01-28T17:12:55;99778.25;;;-1.30;69.82
27864;BME280;15980;51.092;13.916;2023-01-28T17:22:56;99795.22;;;-1.53;72.59
27864;BME280;15980;51.092;13.916;2023-01-28T17:32:56;99803.75;;;-1.56;73.33
27864;BME280;15980;51.092;13.916;2023-01-28T17:42:57;99822.13;;;-1.41;74.61
27864;BME280;15980;51.092;13.916;2023-01-28T17:52:57;99844.25;;;-1.39;75.54
27864;BME280;15980;51.092;13.916;2023-01-28T18:02:58;99842.25;;;-1.44;75.59
27864;BME280;15980;51.092;13.916;2023-01-28T18:12:58;99831.25;;;-1.42;75.38
27864;BME280;15980;51.092;13.916;2023-01-28T18:22:58;99821.41;;;-1.37;75.09
27864;BME280;15980;51.092;13.916;2023-01-28T18:32:59;99848.09;;;-1.35;74.96
27864;BME280;15980;51.092;13.916;2023-01-28T18:42:59;99841.44;;;-1.44;77.79
27864;BME280;15980;51.092;13.916;2023-01-28T18:53:00;99858.63;;;-1.34;77.19
27864;BME280;15980;51.092;13.916;2023-01-28T19:03:01;99880.63;;;-1.37;77.91
27864;BME280;15980;51.092;13.916;2023-01-28T19:23:39;99920.28;;;-1.67;80.05
27864;BME280;15980;51.092;13.916;2023-01-28T19:33:39;99897.94;;;-1.68;80.68
27864;BME280;15980;51.092;13.916;2023-01-28T19:43:39;99892.56;;;-1.56;80.40
27864;BME280;15980;51.092;13.916;2023-01-28T19:53:41;99882.91;;;-1.75;80.42
27864;BME280;15980;51.092;13.916;2023-01-28T20:03:42;99881.25;;;-2.00;82.09
27864;BME280;15980;51.092;13.916;2023-01-28T20:13:44;99864.97;;;-2.05;83.49
27864;BME280;15980;51.092;13.916;2023-01-28T20:23:50;99858.72;;;-1.75;84.50
27864;BME280;15980;51.092;13.916;2023-01-28T20:33:50;99842.69;;;-1.82;84.86
27864;BME280;15980;51.092;13.916;2023-01-28T20:43:52;99830.75;;;-1.74;85.00
27864;BME280;15980;51.092;13.916;2023-01-28T20:53:53;99838.38;;;-1.71;84.87
27864;BME280;15980;51.092;13.916;2023-01-28T21:03:54;99851.84;;;-1.71;85.20
27864;BME280;15980;51.092;13.916;2023-01-28T21:13:54;99870.44;;;-1.70;84.77
27864;BME280;15980;51.092;13.916;2023-01-28T21:23:59;99873.97;;;-1.58;85.35
27864;BME280;15980;51.092;13.916;2023-01-28T21:33:59;99876.53;;;-1.51;84.71
27864;BME280;15980;51.092;13.916;2023-01-28T21:44:00;99889.19;;;-1.51;84.32
27864;BME280;15980;51.092;13.916;2023-01-28T21:54:05;99884.50;;;-1.56;83.68
27864;BME280;15980;51.092;13.916;2023-01-28T22:04:06;99877.59;;;-1.52;83.66
27864;BME280;15980;51.092;13.916;2023-01-28T22:14:06;99871.88;;;-1.44;83.81
27864;BME280;15980;51.092;13.916;2023-01-28T22:24:15;99855.81;;;-1.39;84.23
27864;BME280;15980;51.092;13.916;2023-01-28T22:34:17;99848.81;;;-1.28;83.50
27864;BME280;15980;51.092;13.916;2023-01-28T22:44:19;99849.97;;;-1.36;83.97
27864;BME280;15980;51.092;13.916;2023-01-28T22:54:19;99843.31;;;-1.45;83.41
27864;BME280;15980;51.092;13.916;2023-01-28T23:04:19;99848.34;;;-1.37;82.72
27864;BME280;15980;51.092;13.916;2023-01-28T23:14:19;99843.06;;;-1.32;82.22
27864;BME280;15980;51.092;13.916;2023-01-28T23:24:20;99843.69;;;-1.30;81.73
27864;BME280;15980;51.092;13.916;2023-01-28T23:34:21;99839.13;;;-1.29;81.52
27864;BME280;15980;51.092;13.916;2023-01-28T23:44:26;99840.75;;;-1.28;81.45
27864;BME280;15980;51.092;13.916;2023-01-28T23:54:27;99839.19;;;-1.36;81.59
